sensor_id;sensor_type;location;lat;lon;timestamp;temperature;humidity
7461;DHT22;6757;52.258;12.840;2023-02-11T00:00:38;1.80;99.90
7461;DHT22;6757;52.258;12.840;2023-02-11T00:03:05;1.80;99.90
7461;DHT22;6757;52.258;12.840;2023-02-11T00:05:32;1.80;99.90
7461;DHT22;6757;52.258;12.840;2023-02-11T00:07:59;1.80;99.90
7461;DHT22;6757;52.258;12.840;2023-02-11T00:10:26;1.80;99.90
7461;DHT22;6757;52.258;12.840;2023-02-11T00:12:53;1.80;99.90
7461;DHT22;6757;52.258;12.840;2023-02-11T00:15:21;1.90;99.90
7461;DHT22;6757;52.258;12.840;2023-02-11T00:17:48;1.90;99.90
7461;DHT22;6757;52.258;12.840;2023-02-11T00:20:15;1.90;99.90
7461;DHT22;6757;52.258;12.840;2023-02-11T00:22:42;1.90;99.90
7461;DHT22;6757;52.258;12.840;2023-02-11T00:25:09;1.90;99.90
7461;DHT22;6757;52.258;12.840;2023-02-11T00:27:36;1.90;99.90
7461;DHT22;6757;52.258;12.840;2023-02-11T00:30:03;1.90;99.90
7461;DHT22;6757;52.258;12.840;2023-02-11T00:32:32;1.90;99.90
7461;DHT22;6757;52.258;12.840;2023-02-11T00:34:59;1.90;99.90
7461;DHT22;6757;52.258;12.840;2023-02-11T00:37:26;1.90;99.90
7461;DHT22;6757;52.258;12.840;2023-02-11T00:39:53;2.00;99.90
7461;DHT22;6757;52.258;12.840;2023-02-11T00:42:20;2.00;99.90
7461;DHT22;6757;52.258;12.840;2023-02-11T00:44:47;2.00;99.90
7461;DHT22;6757;52.258;12.840;2023-02-11T00:47:14;2.00;99.90
7461;DHT22;6757;52.258;12.840;2023-02-11T00:49:42;2.00;99.90
7461;DHT22;6757;52.258;12.840;2023-02-11T00:52:09;2.00;99.90
7461;DHT22;6757;52.258;12.840;2023-02-11T00:54:35;2.10;99.90
7461;DHT22;6757;52.258;12.840;2023-02-11T00:57:03;2.10;99.90
7461;DHT22;6757;52.258;12.840;2023-02-11T00:59:29;2.10;99.90
7461;DHT22;6757;52.258;12.840;2023-02-11T01:01:56;2.10;99.90
7461;DHT22;6757;52.258;12.840;2023-02-11T01:04:23;2.10;99.90
7461;DHT22;6757;52.258;12.840;2023-02-11T01:06:52;2.20;99.90
7461;DHT22;6757;52.258;12.840;2023-02-11T01:09:18;2.20;99.90
7461;DHT22;6757;52.258;12.840;2023-02-11T01:11:46;2.20;99.90
7461;DHT22;6757;52.258;12.840;2023-02-11T01:14:13;2.20;99.90
7461;DHT22;6757;52.258;12.840;2023-02-11T01:16:40;2.30;99.90
7461;DHT22;6757;52.258;12.840;2023-02-11T01:19:07;2.30;99.90
7461;DHT22;6757;52.258;12.840;2023-02-11T01:21:34;2.30;99.90
7461;DHT22;6757;52.258;12.840;2023-02-11T01:24:02;2.30;99.90
7461;DHT22;6757;52.258;12.840;2023-02-11T01:26:29;2.40;99.90
7461;DHT22;6757;52.258;12.840;2023-02-11T01:28:56;2.40;99.90
7461;DHT22;6757;52.258;12.840;2023-02-11T01:31:24;2.40;99.90
7461;DHT22;6757;52.258;12.840;2023-02-11T01:33:51;2.40;99.90
7461;DHT22;6757;52.258;12.840;2023-02-11T01:36:18;2.50;99.90
7461;DHT22;6757;52.258;12.840;2023-02-11T01:38:45;2.50;99.90
7461;DHT22;6757;52.258;12.840;2023-02-11T01:41:13;2.60;99.90
7461;DHT22;6757;52.258;12.840;2023-02-11T01:43:42;2.70;99.90
7461;DHT22;6757;52.258;12.840;2023-02-11T01:46:22;2.70;99.90
7461;DHT22;6757;52.258;12.840;2023-02-11T01:48:58;2.80;99.90
7461;DHT22;6757;52.258;12.840;2023-02-11T01:51:31;2.80;99.90
7461;DHT22;6757;52.258;12.840;2023-02-11T01:54:01;2.90;99.90
7461;DHT22;6757;52.258;12.840;2023-02-11T01:56:50;3.00;99.90
7461;DHT22;6757;52.258;12.840;2023-02-11T01:59:40;3.00;99.90
7461;DHT22;6757;52.258;12.840;2023-02-11T02:02:11;3.10;99.90
7461;DHT22;6757;52.258;12.840;2023-02-11T02:04:45;3.10;99.90
7461;DHT22;6757;52.258;12.840;2023-02-11T02:07:21;3.20;99.90
7461;DHT22;6757;52.258;12.840;2023-02-11T02:09:55;3.30;99.90
7461;DHT22;6757;52.258;12.840;2023-02-11T02:12:26;3.40;99.90
7461;DHT22;6757;52.258;12.840;2023-02-11T02:15:18;3.40;99.90
7461;DHT22;6757;52.258;12.840;2023-02-11T02:18:13;3.50;99.90
7461;DHT22;6757;52.258;12.840;2023-02-11T02:21:17;3.60;99.90
7461;DHT22;6757;52.258;12.840;2023-02-11T02:27:32;3.70;99.90
7461;DHT22;6757;52.258;12.840;2023-02-11T02:30:37;3.70;99.90
7461;DHT22;6757;52.258;12.840;2023-02-11T02:33:32;3.70;99.90
7461;DHT22;6757;52.258;12.840;2023-02-11T02:36:13;3.80;99.90
7461;DHT22;6757;52.258;12.840;2023-02-11T02:38:49;3.80;99.90
7461;DHT22;6757;52.258;12.840;2023-02-11T02:41:21;3.80;99.90
7461;DHT22;6757;52.258;12.840;2023-02-11T02:43:50;3.90;99.90
7461;DHT22;6757;52.258;12.840;2023-02-11T02:46:20;3.90;99.90
7461;DHT22;6757;52.258;12.840;2023-02-11T02:48:51;3.90;99.90
7461;DHT22;6757;52.258;12.840;2023-02-11T02:54:42;3.90;99.90
7461;DHT22;6757;52.258;12.840;2023-02-11T02:57:41;3.90;99.90
7461;DHT22;6757;52.258;12.840;2023-02-11T03:00:22;3.90;99.90
7461;DHT22;6757;52.258;12.840;2023-02-11T03:03:04;4.00;99.90
7461;DHT22;6757;52.258;12.840;2023-02-11T03:05:48;3.90;99.90
7461;DHT22;6757;52.258;12.840;2023-02-11T03:08:24;4.00;99.90
7461;DHT22;6757;52.258;12.840;2023-02-11T03:10:55;4.00;99.90
7461;DHT22;6757;52.258;12.840;2023-02-11T03:13:26;4.00;99.90
7461;DHT22;6757;52.258;12.840;2023-02-11T03:15:59;4.00;99.90
7461;DHT22;6757;52.258;12.840;2023-02-11T03:18:32;4.00;99.90
7461;DHT22;6757;52.258;12.840;2023-02-11T03:21:04;4.00;99.90
7461;DHT22;6757;52.258;12.840;2023-02-11T03:23:36;4.00;99.90
7461;DHT22;6757;52.258;12.840;2023-02-11T03:26:11;4.00;99.90
7461;DHT22;6757;52.258;12.840;2023-02-11T03:28:44;4.00;99.90
7461;DHT22;6757;52.258;12.840;2023-02-11T03:31:18;4.00;99.90
7461;DHT22;6757;52.258;12.840;2023-02-11T03:33:54;4.00;99.90
7461;DHT22;6757;52.258;12.840;2023-02-11T03:36:31;4.00;99.90
7461;DHT22;6757;52.258;12.840;2023-02-11T03:39:02;4.00;99.90
7461;DHT22;6757;52.258;12.840;2023-02-11T03:41:30;4.10;99.90
7461;DHT22;6757;52.258;12.840;2023-02-11T03:44:00;4.10;99.90
7461;DHT22;6757;52.258;12.840;2023-02-11T03:46:30;4.10;99.90
7461;DHT22;6757;52.258;12.840;2023-02-11T03:49:03;4.10;99.90
7461;DHT22;6757;52.258;12.840;2023-02-11T03:51:34;4.10;99.90
7461;DHT22;6757;52.258;12.840;2023-02-11T03:54:04;4.10;99.90
7461;DHT22;6757;52.258;12.840;2023-02-11T03:56:37;4.10;99.90
7461;DHT22;6757;52.258;12.840;2023-02-11T03:59:07;4.20;99.90
7461;DHT22;6757;52.258;12.840;2023-02-11T04:01:34;4.20;99.90
7461;DHT22;6757;52.258;12.840;2023-02-11T04:04:01;4.20;99.90
7461;DHT22;6757;52.258;12.840;2023-02-11T04:06:27;4.20;99.90
7461;DHT22;6757;52.258;12.840;2023-02-11T04:08:56;4.20;99.90
7461;DHT22;6757;52.258;12.840;2023-02-11T04:11:22;4.20;99.90
7461;DHT22;6757;52.258;12.840;2023-02-11T04:13:49;4.20;99.90
7461;DHT22;6757;52.258;12.840;2023-02-11T04:16:16;4.30;99.90
7461;DHT22;6757;52.258;12.840;2023-02-11T04:18:43;4.30;99.90
7461;DHT22;6757;52.258;12.840;2023-02-11T04:21:10;4.30;99.90
7461;DHT22;6757;52.258;12.840;2023-02-11T04:23:37;4.30;99.90
7461;DHT22;6757;52.258;12.840;2023-02-11T04:26:05;4.30;99.90
7461;DHT22;6757;52.258;12.840;2023-02-11T04:28:32;4.30;99.90
7461;DHT22;6757;52.258;12.840;2023-02-11T04:30:59;4.30;99.90
7461;DHT22;6757;52.258;12.840;2023-02-11T04:33:26;4.30;99.90
7461;DHT22;6757;52.258;12.840;2023-02-11T04:35:53;4.30;99.90
7461;DHT22;6757;52.258;12.840;2023-02-11T04:38:20;4.30;99.90
7461;DHT22;6757;52.258;12.840;2023-02-11T04:40:48;4.30;99.90
7461;DHT22;6757;52.258;12.840;2023-02-11T04:43:16;4.30;99.90
7461;DHT22;6757;52.258;12.840;2023-02-11T04:45:43;4.30;99.90
7461;DHT22;6757;52.258;12.840;2023-02-11T04:48:10;4.40;99.90
7461;DHT22;6757;52.258;12.840;2023-02-11T04:50:37;4.40;99.90
7461;DHT22;6757;52.258;12.840;2023-02-11T04:53:04;4.40;99.90
7461;DHT22;6757;52.258;12.840;2023-02-11T04:55:31;4.40;99.90
7461;DHT22;6757;52.258;12.840;2023-02-11T04:57:57;4.40;99.90
7461;DHT22;6757;52.258;12.840;2023-02-11T05:00:26;4.40;99.90
7461;DHT22;6757;52.258;12.840;2023-02-11T05:02:52;4.40;99.90
7461;DHT22;6757;52.258;12.840;2023-02-11T05:05:19;4.40;99.90
7461;DHT22;6757;52.258;12.840;2023-02-11T05:07:46;4.40;99.90
7461;DHT22;6757;52.258;12.840;2023-02-11T05:10:13;4.40;99.90
7461;DHT22;6757;52.258;12.840;2023-02-11T05:12:40;4.40;99.90
7461;DHT22;6757;52.258;12.840;2023-02-11T05:15:07;4.40;99.90
7461;DHT22;6757;52.258;12.840;2023-02-11T05:17:35;4.40;99.90
7461;DHT22;6757;52.258;12.840;2023-02-11T05:20:03;4.30;99.90
7461;DHT22;6757;52.258;12.840;2023-02-11T05:22:30;4.40;99.90
7461;DHT22;6757;52.258;12.840;2023-02-11T05:24:57;4.40;99.90
7461;DHT22;6757;52.258;12.840;2023-02-11T05:27:24;4.30;99.90
7461;DHT22;6757;52.258;12.840;2023-02-11T05:29:51;4.30;99.90
7461;DHT22;6757;52.258;12.840;2023-02-11T05:32:17;4.30;99.90
7461;DHT22;6757;52.258;12.840;2023-02-11T05:34:46;4.30;99.90
7461;DHT22;6757;52.258;12.840;2023-02-11T05:37:13;4.30;99.90
7461;DHT22;6757;52.258;12.840;2023-02-11T05:39:39;4.30;99.90
7461;DHT22;6757;52.258;12.840;2023-02-11T05:42:06;4.30;99.90
7461;DHT22;6757;52.258;12.840;2023-02-11T05:44:33;4.30;99.90
7461;DHT22;6757;52.258;12.840;2023-02-11T05:47:00;4.30;99.90
7461;DHT22;6757;52.258;12.840;2023-02-11T05:49:27;4.30;99.90
7461;DHT22;6757;52.258;12.840;2023-02-11T05:51:55;4.30;99.90
7461;DHT22;6757;52.258;12.840;2023-02-11T05:54:22;4.30;99.90
7461;DHT22;6757;52.258;12.840;2023-02-11T05:56:49;4.30;99.90
7461;DHT22;6757;52.258;12.840;2023-02-11T05:59:16;4.30;99.90
7461;DHT22;6757;52.258;12.840;2023-02-11T06:01:43;4.30;99.90
7461;DHT22;6757;52.258;12.840;2023-02-11T06:04:10;4.30;99.90
7461;DHT22;6757;52.258;12.840;2023-02-11T06:06:36;4.30;99.90
7461;DHT22;6757;52.258;12.840;2023-02-11T06:09:05;4.30;99.90
7461;DHT22;6757;52.258;12.840;2023-02-11T06:11:31;4.30;99.90
7461;DHT22;6757;52.258;12.840;2023-02-11T06:13:59;4.40;99.90
7461;DHT22;6757;52.258;12.840;2023-02-11T06:16:26;4.40;99.90
7461;DHT22;6757;52.258;12.840;2023-02-11T06:18:53;4.40;99.90
7461;DHT22;6757;52.258;12.840;2023-02-11T06:21:20;4.40;99.90
7461;DHT22;6757;52.258;12.840;2023-02-11T06:23:47;4.40;99.90
7461;DHT22;6757;52.258;12.840;2023-02-11T06:26:18;4.50;99.90
7461;DHT22;6757;52.258;12.840;2023-02-11T06:28:46;4.50;99.90
7461;DHT22;6757;52.258;12.840;2023-02-11T06:31:14;4.50;99.90
7461;DHT22;6757;52.258;12.840;2023-02-11T06:33:41;4.50;99.90
7461;DHT22;6757;52.258;12.840;2023-02-11T06:36:14;4.60;99.90
7461;DHT22;6757;52.258;12.840;2023-02-11T06:38:42;4.60;99.90
7461;DHT22;6757;52.258;12.840;2023-02-11T06:41:10;4.60;99.90
7461;DHT22;6757;52.258;12.840;2023-02-11T06:43:39;4.60;99.90
7461;DHT22;6757;52.258;12.840;2023-02-11T06:46:07;4.70;99.90
7461;DHT22;6757;52.258;12.840;2023-02-11T06:48:34;4.70;99.90
7461;DHT22;6757;52.258;12.840;2023-02-11T06:51:02;4.70;99.90
7461;DHT22;6757;52.258;12.840;2023-02-11T06:53:30;4.70;99.90
7461;DHT22;6757;52.258;12.840;2023-02-11T06:56:01;4.80;99.90
7461;DHT22;6757;52.258;12.840;2023-02-11T06:58:29;4.90;99.90
7461;DHT22;6757;52.258;12.840;2023-02-11T07:00:57;5.10;99.90
7461;DHT22;6757;52.258;12.840;2023-02-11T07:03:25;5.30;99.90
7461;DHT22;6757;52.258;12.840;2023-02-11T07:05:52;5.30;99.90
7461;DHT22;6757;52.258;12.840;2023-02-11T07:08:18;5.30;99.90
7461;DHT22;6757;52.258;12.840;2023-02-11T07:10:45;5.30;99.90
7461;DHT22;6757;52.258;12.840;2023-02-11T07:13:12;5.30;99.90
7461;DHT22;6757;52.258;12.840;2023-02-11T07:15:39;5.20;99.90
7461;DHT22;6757;52.258;12.840;2023-02-11T07:18:07;5.20;99.90
7461;DHT22;6757;52.258;12.840;2023-02-11T07:20:35;5.20;99.90
7461;DHT22;6757;52.258;12.840;2023-02-11T07:23:03;5.10;99.90
7461;DHT22;6757;52.258;12.840;2023-02-11T07:25:30;5.10;99.90
7461;DHT22;6757;52.258;12.840;2023-02-11T07:27:56;5.10;99.90
7461;DHT22;6757;52.258;12.840;2023-02-11T07:30:23;5.20;99.90
7461;DHT22;6757;52.258;12.840;2023-02-11T07:32:50;5.20;99.90
7461;DHT22;6757;52.258;12.840;2023-02-11T07:35:18;5.30;99.90
7461;DHT22;6757;52.258;12.840;2023-02-11T07:37:45;5.20;99.90
7461;DHT22;6757;52.258;12.840;2023-02-11T07:40:12;5.20;99.90
7461;DHT22;6757;52.258;12.840;2023-02-11T07:42:39;5.30;99.90
7461;DHT22;6757;52.258;12.840;2023-02-11T07:45:07;5.30;99.90
7461;DHT22;6757;52.258;12.840;2023-02-11T07:47:34;5.30;99.90
7461;DHT22;6757;52.258;12.840;2023-02-11T07:50:02;5.30;99.90
7461;DHT22;6757;52.258;12.840;2023-02-11T07:52:31;5.30;99.90
7461;DHT22;6757;52.258;12.840;2023-02-11T07:54:57;5.40;99.90
7461;DHT22;6757;52.258;12.840;2023-02-11T07:57:24;5.40;99.90
7461;DHT22;6757;52.258;12.840;2023-02-11T07:59:52;5.40;99.90
7461;DHT22;6757;52.258;12.840;2023-02-11T08:02:19;5.50;99.90
7461;DHT22;6757;52.258;12.840;2023-02-11T08:04:46;5.50;99.90
7461;DHT22;6757;52.258;12.840;2023-02-11T08:07:14;5.50;99.90
7461;DHT22;6757;52.258;12.840;2023-02-11T08:09:43;5.50;99.90
7461;DHT22;6757;52.258;12.840;2023-02-11T08:12:10;5.50;99.90
7461;DHT22;6757;52.258;12.840;2023-02-11T08:14:37;5.50;99.90
7461;DHT22;6757;52.258;12.840;2023-02-11T08:17:04;5.50;99.90
7461;DHT22;6757;52.258;12.840;2023-02-11T08:19:31;5.50;99.90
7461;DHT22;6757;52.258;12.840;2023-02-11T08:21:58;5.50;99.90
7461;DHT22;6757;52.258;12.840;2023-02-11T08:24:25;5.60;99.90
7461;DHT22;6757;52.258;12.840;2023-02-11T08:26:54;5.60;99.90
7461;DHT22;6757;52.258;12.840;2023-02-11T08:29:21;5.60;99.90
7461;DHT22;6757;52.258;12.840;2023-02-11T08:31:48;5.60;99.90
7461;DHT22;6757;52.258;12.840;2023-02-11T08:34:15;5.60;99.90
7461;DHT22;6757;52.258;12.840;2023-02-11T08:36:44;5.60;99.90
7461;DHT22;6757;52.258;12.840;2023-02-11T08:39:13;5.60;99.90
7461;DHT22;6757;52.258;12.840;2023-02-11T08:41:41;5.60;99.90
7461;DHT22;6757;52.258;12.840;2023-02-11T08:44:10;5.60;99.90
7461;DHT22;6757;52.258;12.840;2023-02-11T08:46:37;5.60;99.90
7461;DHT22;6757;52.258;12.840;2023-02-11T08:49:03;5.60;99.90
7461;DHT22;6757;52.258;12.840;2023-02-11T08:51:31;5.60;99.90
7461;DHT22;6757;52.258;12.840;2023-02-11T08:53:58;5.60;99.90
7461;DHT22;6757;52.258;12.840;2023-02-11T08:56:26;5.60;99.90
7461;DHT22;6757;52.258;12.840;2023-02-11T08:58:53;5.60;99.90
7461;DHT22;6757;52.258;12.840;2023-02-11T09:01:23;5.60;99.90
7461;DHT22;6757;52.258;12.840;2023-02-11T09:03:52;5.60;99.90
7461;DHT22;6757;52.258;12.840;2023-02-11T09:06:20;5.60;99.90
7461;DHT22;6757;52.258;12.840;2023-02-11T09:08:49;5.60;99.90
7461;DHT22;6757;52.258;12.840;2023-02-11T09:11:19;5.60;99.90
7461;DHT22;6757;52.258;12.840;2023-02-11T09:13:47;5.60;99.90
7461;DHT22;6757;52.258;12.840;2023-02-11T09:16:20;5.60;99.90
7461;DHT22;6757;52.258;12.840;2023-02-11T09:18:50;5.60;99.90
7461;DHT22;6757;52.258;12.840;2023-02-11T09:21:17;5.60;99.90
7461;DHT22;6757;52.258;12.840;2023-02-11T09:23:45;5.60;99.90
7461;DHT22;6757;52.258;12.840;2023-02-11T09:26:14;5.70;99.90
7461;DHT22;6757;52.258;12.840;2023-02-11T09:28:43;5.60;99.90
7461;DHT22;6757;52.258;12.840;2023-02-11T09:31:13;5.60;99.90
7461;DHT22;6757;52.258;12.840;2023-02-11T09:33:44;5.70;99.90
7461;DHT22;6757;52.258;12.840;2023-02-11T09:36:14;5.70;99.90
7461;DHT22;6757;52.258;12.840;2023-02-11T09:38:42;5.70;99.90
7461;DHT22;6757;52.258;12.840;2023-02-11T09:41:26;5.70;99.90
7461;DHT22;6757;52.258;12.840;2023-02-11T09:44:03;5.80;99.90
7461;DHT22;6757;52.258;12.840;2023-02-11T09:46:34;5.70;99.90
7461;DHT22;6757;52.258;12.840;2023-02-11T09:49:03;5.80;99.90
7461;DHT22;6757;52.258;12.840;2023-02-11T09:51:37;5.80;99.90
7461;DHT22;6757;52.258;12.840;2023-02-11T09:54:11;5.80;99.90
7461;DHT22;6757;52.258;12.840;2023-02-11T09:56:42;5.80;99.90
7461;DHT22;6757;52.258;12.840;2023-02-11T09:59:10;5.80;99.90
7461;DHT22;6757;52.258;12.840;2023-02-11T10:01:44;5.90;99.90
7461;DHT22;6757;52.258;12.840;2023-02-11T10:04:24;5.90;99.90
7461;DHT22;6757;52.258;12.840;2023-02-11T10:07:09;5.90;99.90
7461;DHT22;6757;52.258;12.840;2023-02-11T10:09:54;5.90;99.90
7461;DHT22;6757;52.258;12.840;2023-02-11T10:12:44;6.00;99.90
7461;DHT22;6757;52.258;12.840;2023-02-11T10:15:26;6.00;99.90
7461;DHT22;6757;52.258;12.840;2023-02-11T10:18:34;6.00;99.90
7461;DHT22;6757;52.258;12.840;2023-02-11T10:21:36;6.00;99.90
7461;DHT22;6757;52.258;12.840;2023-02-11T10:24:13;6.10;99.90
7461;DHT22;6757;52.258;12.840;2023-02-11T10:26:42;6.10;99.90
7461;DHT22;6757;52.258;12.840;2023-02-11T10:29:17;6.10;99.90
7461;DHT22;6757;52.258;12.840;2023-02-11T10:31:50;6.20;99.90
7461;DHT22;6757;52.258;12.840;2023-02-11T10:34:18;6.20;99.90
7461;DHT22;6757;52.258;12.840;2023-02-11T10:36:47;6.20;99.90
7461;DHT22;6757;52.258;12.840;2023-02-11T10:39:19;6.20;99.90
7461;DHT22;6757;52.258;12.840;2023-02-11T10:41:50;6.20;99.90
7461;DHT22;6757;52.258;12.840;2023-02-11T10:44:21;6.20;99.90
7461;DHT22;6757;52.258;12.840;2023-02-11T10:46:57;6.20;99.90
7461;DHT22;6757;52.258;12.840;2023-02-11T10:49:35;6.20;99.90
7461;DHT22;6757;52.258;12.840;2023-02-11T10:52:22;6.10;99.90
7461;DHT22;6757;52.258;12.840;2023-02-11T10:54:57;6.10;99.90
7461;DHT22;6757;52.258;12.840;2023-02-11T10:57:29;6.10;99.90
7461;DHT22;6757;52.258;12.840;2023-02-11T11:00:03;6.10;99.90
7461;DHT22;6757;52.258;12.840;2023-02-11T11:02:35;6.10;99.90
7461;DHT22;6757;52.258;12.840;2023-02-11T11:05:16;6.10;99.90
7461;DHT22;6757;52.258;12.840;2023-02-11T11:07:54;6.10;99.90
7461;DHT22;6757;52.258;12.840;2023-02-11T11:10:33;6.10;99.90
7461;DHT22;6757;52.258;12.840;2023-02-11T11:13:22;6.10;99.90
7461;DHT22;6757;52.258;12.840;2023-02-11T11:16:19;6.10;99.90
7461;DHT22;6757;52.258;12.840;2023-02-11T11:18:48;6.10;99.90
7461;DHT22;6757;52.258;12.840;2023-02-11T11:21:19;6.10;99.90
7461;DHT22;6757;52.258;12.840;2023-02-11T11:23:59;6.10;99.90
7461;DHT22;6757;52.258;12.840;2023-02-11T11:26:38;6.20;99.90
7461;DHT22;6757;52.258;12.840;2023-02-11T11:29:10;6.20;99.90
7461;DHT22;6757;52.258;12.840;2023-02-11T11:31:46;6.20;99.90
7461;DHT22;6757;52.258;12.840;2023-02-11T11:34:22;6.20;99.90
7461;DHT22;6757;52.258;12.840;2023-02-11T11:36:54;6.20;99.90
7461;DHT22;6757;52.258;12.840;2023-02-11T11:39:26;6.20;99.90
7461;DHT22;6757;52.258;12.840;2023-02-11T11:41:56;6.20;99.90
7461;DHT22;6757;52.258;12.840;2023-02-11T11:44:27;6.20;99.90
7461;DHT22;6757;52.258;12.840;2023-02-11T11:47:14;6.20;99.90
7461;DHT22;6757;52.258;12.840;2023-02-11T11:49:52;6.20;99.90
7461;DHT22;6757;52.258;12.840;2023-02-11T11:52:36;6.30;99.90
7461;DHT22;6757;52.258;12.840;2023-02-11T11:55:13;6.30;99.90
7461;DHT22;6757;52.258;12.840;2023-02-11T11:57:43;6.30;99.90
7461;DHT22;6757;52.258;12.840;2023-02-11T12:00:14;6.30;99.90
7461;DHT22;6757;52.258;12.840;2023-02-11T12:06:20;6.40;99.90
7461;DHT22;6757;52.258;12.840;2023-02-11T12:09:00;6.40;99.90
7461;DHT22;6757;52.258;12.840;2023-02-11T12:11:44;6.40;99.90
7461;DHT22;6757;52.258;12.840;2023-02-11T12:14:24;6.50;99.90
7461;DHT22;6757;52.258;12.840;2023-02-11T12:16:59;6.50;99.90
7461;DHT22;6757;52.258;12.840;2023-02-11T12:20:04;6.50;99.90
7461;DHT22;6757;52.258;12.840;2023-02-11T12:23:02;6.60;99.90
7461;DHT22;6757;52.258;12.840;2023-02-11T12:25:47;6.60;99.90
7461;DHT22;6757;52.258;12.840;2023-02-11T12:28:28;6.60;99.90
7461;DHT22;6757;52.258;12.840;2023-02-11T12:31:19;6.70;99.90
7461;DHT22;6757;52.258;12.840;2023-02-11T12:34:15;6.70;99.90
7461;DHT22;6757;52.258;12.840;2023-02-11T12:36:57;6.90;99.90
7461;DHT22;6757;52.258;12.840;2023-02-11T12:39:34;6.70;99.90
7461;DHT22;6757;52.258;12.840;2023-02-11T12:42:28;6.80;99.90
7461;DHT22;6757;52.258;12.840;2023-02-11T12:45:41;6.80;99.90
7461;DHT22;6757;52.258;12.840;2023-02-11T12:48:26;6.80;99.90
7461;DHT22;6757;52.258;12.840;2023-02-11T12:51:13;6.90;99.90
7461;DHT22;6757;52.258;12.840;2023-02-11T12:56:53;6.90;99.90
7461;DHT22;6757;52.258;12.840;2023-02-11T12:59:33;6.90;99.90
7461;DHT22;6757;52.258;12.840;2023-02-11T13:02:14;7.00;99.90
7461;DHT22;6757;52.258;12.840;2023-02-11T13:04:48;6.90;99.90
7461;DHT22;6757;52.258;12.840;2023-02-11T13:07:22;7.00;99.90
7461;DHT22;6757;52.258;12.840;2023-02-11T13:09:58;7.00;99.90
7461;DHT22;6757;52.258;12.840;2023-02-11T13:12:31;7.00;99.90
7461;DHT22;6757;52.258;12.840;2023-02-11T13:15:17;7.00;99.90
7461;DHT22;6757;52.258;12.840;2023-02-11T13:17:51;7.00;99.90
7461;DHT22;6757;52.258;12.840;2023-02-11T13:20:34;7.00;99.90
7461;DHT22;6757;52.258;12.840;2023-02-11T13:23:12;7.00;99.90
7461;DHT22;6757;52.258;12.840;2023-02-11T13:25:49;7.00;99.90
7461;DHT22;6757;52.258;12.840;2023-02-11T13:28:32;7.10;99.90
7461;DHT22;6757;52.258;12.840;2023-02-11T13:31:06;7.10;99.90
7461;DHT22;6757;52.258;12.840;2023-02-11T13:33:36;7.10;99.90
7461;DHT22;6757;52.258;12.840;2023-02-11T13:36:25;7.10;99.90
7461;DHT22;6757;52.258;12.840;2023-02-11T13:38:56;7.10;99.90
7461;DHT22;6757;52.258;12.840;2023-02-11T13:41:31;7.10;99.90
7461;DHT22;6757;52.258;12.840;2023-02-11T13:44:12;7.20;99.90
7461;DHT22;6757;52.258;12.840;2023-02-11T13:46:59;7.20;99.90
7461;DHT22;6757;52.258;12.840;2023-02-11T13:49:32;7.20;99.90
7461;DHT22;6757;52.258;12.840;2023-02-11T13:52:03;7.20;99.90
7461;DHT22;6757;52.258;12.840;2023-02-11T13:54:33;7.20;99.90
7461;DHT22;6757;52.258;12.840;2023-02-11T13:57:21;7.20;99.90
7461;DHT22;6757;52.258;12.840;2023-02-11T13:59:52;7.30;99.90
7461;DHT22;6757;52.258;12.840;2023-02-11T14:02:23;7.30;99.90
7461;DHT22;6757;52.258;12.840;2023-02-11T14:05:25;7.30;99.90
7461;DHT22;6757;52.258;12.840;2023-02-11T14:08:22;7.30;99.90
7461;DHT22;6757;52.258;12.840;2023-02-11T14:14:20;7.30;99.90
7461;DHT22;6757;52.258;12.840;2023-02-11T14:19:43;7.30;99.90
7461;DHT22;6757;52.258;12.840;2023-02-11T14:22:15;7.40;99.90
7461;DHT22;6757;52.258;12.840;2023-02-11T14:24:50;7.40;99.90
7461;DHT22;6757;52.258;12.840;2023-02-11T14:27:26;7.40;99.90
7461;DHT22;6757;52.258;12.840;2023-02-11T14:33:29;7.40;99.90
7461;DHT22;6757;52.258;12.840;2023-02-11T14:39:31;7.50;99.90
7461;DHT22;6757;52.258;12.840;2023-02-11T14:42:15;7.70;99.90
7461;DHT22;6757;52.258;12.840;2023-02-11T14:44:44;7.70;99.90
7461;DHT22;6757;52.258;12.840;2023-02-11T14:47:17;7.70;99.90
7461;DHT22;6757;52.258;12.840;2023-02-11T14:49:45;7.70;99.90
7461;DHT22;6757;52.258;12.840;2023-02-11T14:52:21;7.70;99.90
7461;DHT22;6757;52.258;12.840;2023-02-11T14:55:01;7.70;99.90
7461;DHT22;6757;52.258;12.840;2023-02-11T14:57:32;7.70;99.90
7461;DHT22;6757;52.258;12.840;2023-02-11T15:00:02;7.60;99.90
7461;DHT22;6757;52.258;12.840;2023-02-11T15:02:33;7.60;99.90
7461;DHT22;6757;52.258;12.840;2023-02-11T15:05:20;7.60;99.90
7461;DHT22;6757;52.258;12.840;2023-02-11T15:07:53;7.60;99.90
7461;DHT22;6757;52.258;12.840;2023-02-11T15:10:27;7.60;99.90
7461;DHT22;6757;52.258;12.840;2023-02-11T15:12:57;7.60;99.90
7461;DHT22;6757;52.258;12.840;2023-02-11T15:15:25;7.60;99.90
7461;DHT22;6757;52.258;12.840;2023-02-11T15:17:54;7.60;99.90
7461;DHT22;6757;52.258;12.840;2023-02-11T15:20:26;7.60;99.90
7461;DHT22;6757;52.258;12.840;2023-02-11T15:22:58;7.60;99.90
7461;DHT22;6757;52.258;12.840;2023-02-11T15:25:27;7.60;99.90
7461;DHT22;6757;52.258;12.840;2023-02-11T15:27:56;7.60;99.90
7461;DHT22;6757;52.258;12.840;2023-02-11T15:30:29;7.60;99.90
7461;DHT22;6757;52.258;12.840;2023-02-11T15:32:59;7.60;99.90
7461;DHT22;6757;52.258;12.840;2023-02-11T15:35:29;7.60;99.90
7461;DHT22;6757;52.258;12.840;2023-02-11T15:38:00;7.60;99.90
7461;DHT22;6757;52.258;12.840;2023-02-11T15:40:29;7.50;99.90
7461;DHT22;6757;52.258;12.840;2023-02-11T15:42:58;7.50;99.90
7461;DHT22;6757;52.258;12.840;2023-02-11T15:45:29;7.50;99.90
7461;DHT22;6757;52.258;12.840;2023-02-11T15:48:01;7.50;99.90
7461;DHT22;6757;52.258;12.840;2023-02-11T15:50:34;7.50;99.90
7461;DHT22;6757;52.258;12.840;2023-02-11T15:53:04;7.40;99.90
7461;DHT22;6757;52.258;12.840;2023-02-11T15:55:48;7.40;99.90
7461;DHT22;6757;52.258;12.840;2023-02-11T15:58:16;7.40;99.90
7461;DHT22;6757;52.258;12.840;2023-02-11T16:00:46;7.40;99.90
7461;DHT22;6757;52.258;12.840;2023-02-11T16:03:22;7.40;99.90
7461;DHT22;6757;52.258;12.840;2023-02-11T16:05:50;7.40;99.90
7461;DHT22;6757;52.258;12.840;2023-02-11T16:08:22;7.30;99.90
7461;DHT22;6757;52.258;12.840;2023-02-11T16:10:56;7.40;99.90
7461;DHT22;6757;52.258;12.840;2023-02-11T16:13:29;7.30;99.90
7461;DHT22;6757;52.258;12.840;2023-02-11T16:16:00;7.30;99.90
7461;DHT22;6757;52.258;12.840;2023-02-11T16:18:34;7.30;99.90
7461;DHT22;6757;52.258;12.840;2023-02-11T16:21:04;7.30;99.90
7461;DHT22;6757;52.258;12.840;2023-02-11T16:23:34;7.30;99.90
7461;DHT22;6757;52.258;12.840;2023-02-11T16:26:07;7.30;99.90
7461;DHT22;6757;52.258;12.840;2023-02-11T16:28:37;7.30;99.90
7461;DHT22;6757;52.258;12.840;2023-02-11T16:31:05;7.30;99.90
7461;DHT22;6757;52.258;12.840;2023-02-11T16:33:32;7.30;99.90
7461;DHT22;6757;52.258;12.840;2023-02-11T16:35:58;7.40;99.90
7461;DHT22;6757;52.258;12.840;2023-02-11T16:38:27;7.40;99.90
7461;DHT22;6757;52.258;12.840;2023-02-11T16:40:55;7.40;99.90
7461;DHT22;6757;52.258;12.840;2023-02-11T16:43:23;7.40;99.90
7461;DHT22;6757;52.258;12.840;2023-02-11T16:45:50;7.40;99.90
7461;DHT22;6757;52.258;12.840;2023-02-11T16:48:17;7.40;99.90
7461;DHT22;6757;52.258;12.840;2023-02-11T16:50:47;7.40;99.90
7461;DHT22;6757;52.258;12.840;2023-02-11T16:53:18;7.40;99.90
7461;DHT22;6757;52.258;12.840;2023-02-11T16:55:48;7.50;99.90
7461;DHT22;6757;52.258;12.840;2023-02-11T16:58:15;7.50;99.90
7461;DHT22;6757;52.258;12.840;2023-02-11T17:00:44;7.50;99.90